sensor_id;sensor_type;location;lat;lon;timestamp;P1;durP1;ratioP1;P2;durP2;ratioP2
31262;SDS011;17892;52.080;9.006;2024-03-25T00:00:31;3.00;;;0.55;;
31262;SDS011;17892;52.080;9.006;2024-03-25T00:02:57;4.78;;;0.70;;
31262;SDS011;17892;52.080;9.006;2024-03-25T00:05:23;1.65;;;0.55;;
31262;SDS011;17892;52.080;9.006;2024-03-25T00:07:50;3.60;;;0.80;;
31262;SDS011;17892;52.080;9.006;2024-03-25T00:10:17;1.77;;;0.40;;
31262;SDS011;17892;52.080;9.006;2024-03-25T00:12:45;3.75;;;0.98;;
31262;SDS011;17892;52.080;9.006;2024-03-25T00:15:12;4.20;;;0.73;;
31262;SDS011;17892;52.080;9.006;2024-03-25T00:17:38;1.85;;;0.57;;
31262;SDS011;17892;52.080;9.006;2024-03-25T00:20:04;2.28;;;0.55;;
31262;SDS011;17892;52.080;9.006;2024-03-25T00:22:34;2.45;;;0.75;;
31262;SDS011;17892;52.080;9.006;2024-03-25T00:24:59;2.78;;;0.80;;
31262;SDS011;17892;52.080;9.006;2024-03-25T00:27:25;3.20;;;0.80;;
31262;SDS011;17892;52.080;9.006;2024-03-25T00:29:51;3.90;;;1.20;;
31262;SDS011;17892;52.080;9.006;2024-03-25T00:32:17;3.13;;;0.80;;
31262;SDS011;17892;52.080;9.006;2024-03-25T00:34:42;2.60;;;1.13;;
31262;SDS011;17892;52.080;9.006;2024-03-25T00:37:08;2.55;;;1.02;;
31262;SDS011;17892;52.080;9.006;2024-03-25T00:39:34;3.80;;;0.90;;
31262;SDS011;17892;52.080;9.006;2024-03-25T00:42:00;4.25;;;1.27;;
31262;SDS011;17892;52.080;9.006;2024-03-25T00:44:25;5.03;;;1.35;;
31262;SDS011;17892;52.080;9.006;2024-03-25T00:46:51;4.43;;;1.77;;
31262;SDS011;17892;52.080;9.006;2024-03-25T00:49:17;6.82;;;1.75;;
31262;SDS011;17892;52.080;9.006;2024-03-25T00:51:42;4.10;;;1.52;;
31262;SDS011;17892;52.080;9.006;2024-03-25T00:54:08;4.22;;;1.63;;
31262;SDS011;17892;52.080;9.006;2024-03-25T00:56:34;4.68;;;1.25;;
31262;SDS011;17892;52.080;9.006;2024-03-25T00:58:59;4.88;;;1.70;;
31262;SDS011;17892;52.080;9.006;2024-03-25T01:01:28;5.22;;;1.65;;
31262;SDS011;17892;52.080;9.006;2024-03-25T01:03:56;4.95;;;1.52;;
31262;SDS011;17892;52.080;9.006;2024-03-25T01:06:22;4.25;;;1.50;;
31262;SDS011;17892;52.080;9.006;2024-03-25T01:08:47;3.55;;;1.60;;
31262;SDS011;17892;52.080;9.006;2024-03-25T01:11:14;8.27;;;1.60;;
31262;SDS011;17892;52.080;9.006;2024-03-25T01:13:40;5.22;;;1.52;;
31262;SDS011;17892;52.080;9.006;2024-03-25T01:16:08;5.65;;;1.50;;
31262;SDS011;17892;52.080;9.006;2024-03-25T01:18:34;5.15;;;1.33;;
31262;SDS011;17892;52.080;9.006;2024-03-25T01:21:01;3.55;;;1.17;;
31262;SDS011;17892;52.080;9.006;2024-03-25T01:23:27;4.55;;;1.40;;
31262;SDS011;17892;52.080;9.006;2024-03-25T01:25:52;6.72;;;1.75;;
31262;SDS011;17892;52.080;9.006;2024-03-25T01:28:18;5.35;;;1.80;;
31262;SDS011;17892;52.080;9.006;2024-03-25T01:30:44;5.97;;;2.20;;
31262;SDS011;17892;52.080;9.006;2024-03-25T01:33:09;9.25;;;2.13;;
31262;SDS011;17892;52.080;9.006;2024-03-25T01:35:35;4.63;;;1.90;;
31262;SDS011;17892;52.080;9.006;2024-03-25T01:38:01;6.95;;;1.77;;
31262;SDS011;17892;52.080;9.006;2024-03-25T01:40:28;7.72;;;1.77;;
31262;SDS011;17892;52.080;9.006;2024-03-25T01:42:57;7.00;;;2.38;;
31262;SDS011;17892;52.080;9.006;2024-03-25T01:45:25;4.50;;;1.65;;
31262;SDS011;17892;52.080;9.006;2024-03-25T01:47:53;7.72;;;2.30;;
31262;SDS011;17892;52.080;9.006;2024-03-25T01:50:19;6.03;;;1.95;;
31262;SDS011;17892;52.080;9.006;2024-03-25T01:52:46;9.00;;;1.90;;
31262;SDS011;17892;52.080;9.006;2024-03-25T01:55:14;8.95;;;2.50;;
31262;SDS011;17892;52.080;9.006;2024-03-25T01:57:43;5.85;;;1.92;;
31262;SDS011;17892;52.080;9.006;2024-03-25T02:00:10;5.55;;;1.40;;
31262;SDS011;17892;52.080;9.006;2024-03-25T02:02:37;5.55;;;1.65;;
31262;SDS011;17892;52.080;9.006;2024-03-25T02:05:15;5.90;;;1.95;;
31262;SDS011;17892;52.080;9.006;2024-03-25T02:07:43;6.03;;;1.83;;
31262;SDS011;17892;52.080;9.006;2024-03-25T02:10:09;6.78;;;1.63;;
31262;SDS011;17892;52.080;9.006;2024-03-25T02:12:39;6.40;;;2.38;;
31262;SDS011;17892;52.080;9.006;2024-03-25T02:15:07;9.13;;;1.50;;
31262;SDS011;17892;52.080;9.006;2024-03-25T02:17:34;7.13;;;1.88;;
31262;SDS011;17892;52.080;9.006;2024-03-25T02:20:01;5.05;;;1.58;;
31262;SDS011;17892;52.080;9.006;2024-03-25T02:22:30;6.10;;;1.92;;
31262;SDS011;17892;52.080;9.006;2024-03-25T02:24:58;8.85;;;2.08;;
31262;SDS011;17892;52.080;9.006;2024-03-25T02:27:25;6.72;;;1.83;;
31262;SDS011;17892;52.080;9.006;2024-03-25T02:29:53;7.25;;;1.67;;
31262;SDS011;17892;52.080;9.006;2024-03-25T02:32:19;6.50;;;2.10;;
31262;SDS011;17892;52.080;9.006;2024-03-25T02:34:47;5.80;;;2.00;;
31262;SDS011;17892;52.080;9.006;2024-03-25T02:37:15;10.15;;;2.10;;
31262;SDS011;17892;52.080;9.006;2024-03-25T02:39:41;7.00;;;1.52;;
31262;SDS011;17892;52.080;9.006;2024-03-25T02:42:07;8.07;;;2.40;;
31262;SDS011;17892;52.080;9.006;2024-03-25T02:44:33;8.02;;;2.05;;
31262;SDS011;17892;52.080;9.006;2024-03-25T02:46:59;5.95;;;1.75;;
31262;SDS011;17892;52.080;9.006;2024-03-25T02:49:26;7.93;;;1.98;;
31262;SDS011;17892;52.080;9.006;2024-03-25T02:51:52;12.32;;;3.42;;
31262;SDS011;17892;52.080;9.006;2024-03-25T02:54:18;6.82;;;1.90;;
31262;SDS011;17892;52.080;9.006;2024-03-25T02:56:44;5.95;;;2.03;;
31262;SDS011;17892;52.080;9.006;2024-03-25T02:59:10;5.82;;;1.90;;
31262;SDS011;17892;52.080;9.006;2024-03-25T03:01:36;8.25;;;2.33;;
31262;SDS011;17892;52.080;9.006;2024-03-25T03:04:01;6.43;;;1.63;;
31262;SDS011;17892;52.080;9.006;2024-03-25T03:06:27;7.22;;;1.58;;
31262;SDS011;17892;52.080;9.006;2024-03-25T03:08:53;7.43;;;1.50;;
31262;SDS011;17892;52.080;9.006;2024-03-25T03:11:18;7.50;;;1.63;;
31262;SDS011;17892;52.080;9.006;2024-03-25T03:13:44;5.43;;;1.48;;
31262;SDS011;17892;52.080;9.006;2024-03-25T03:16:11;8.63;;;1.90;;
31262;SDS011;17892;52.080;9.006;2024-03-25T03:18:37;7.20;;;1.50;;
31262;SDS011;17892;52.080;9.006;2024-03-25T03:21:04;5.43;;;1.48;;
31262;SDS011;17892;52.080;9.006;2024-03-25T03:23:30;3.88;;;1.27;;
31262;SDS011;17892;52.080;9.006;2024-03-25T03:25:55;6.22;;;2.00;;
31262;SDS011;17892;52.080;9.006;2024-03-25T03:28:24;5.43;;;1.75;;
31262;SDS011;17892;52.080;9.006;2024-03-25T03:30:50;9.13;;;2.17;;
31262;SDS011;17892;52.080;9.006;2024-03-25T03:33:16;6.30;;;1.63;;
31262;SDS011;17892;52.080;9.006;2024-03-25T03:35:42;5.43;;;1.63;;
31262;SDS011;17892;52.080;9.006;2024-03-25T03:38:08;6.40;;;1.52;;
31262;SDS011;17892;52.080;9.006;2024-03-25T03:40:33;6.10;;;1.55;;
31262;SDS011;17892;52.080;9.006;2024-03-25T03:42:59;6.03;;;1.83;;
31262;SDS011;17892;52.080;9.006;2024-03-25T03:45:25;9.15;;;1.85;;
31262;SDS011;17892;52.080;9.006;2024-03-25T03:47:51;5.13;;;1.50;;
31262;SDS011;17892;52.080;9.006;2024-03-25T03:50:16;7.80;;;1.88;;
31262;SDS011;17892;52.080;9.006;2024-03-25T03:52:42;6.50;;;1.55;;
31262;SDS011;17892;52.080;9.006;2024-03-25T03:55:08;6.35;;;1.40;;
31262;SDS011;17892;52.080;9.006;2024-03-25T03:57:34;4.60;;;1.45;;
31262;SDS011;17892;52.080;9.006;2024-03-25T04:00:00;6.70;;;1.83;;
31262;SDS011;17892;52.080;9.006;2024-03-25T04:02:27;4.55;;;1.42;;
31262;SDS011;17892;52.080;9.006;2024-03-25T04:04:53;4.57;;;1.20;;
31262;SDS011;17892;52.080;9.006;2024-03-25T04:07:19;6.75;;;1.80;;
31262;SDS011;17892;52.080;9.006;2024-03-25T04:09:45;5.22;;;1.63;;
31262;SDS011;17892;52.080;9.006;2024-03-25T04:12:11;11.65;;;2.13;;
31262;SDS011;17892;52.080;9.006;2024-03-25T04:14:36;5.65;;;1.73;;
31262;SDS011;17892;52.080;9.006;2024-03-25T04:17:03;5.97;;;1.88;;
31262;SDS011;17892;52.080;9.006;2024-03-25T04:19:32;7.35;;;1.67;;
31262;SDS011;17892;52.080;9.006;2024-03-25T04:21:58;6.88;;;2.28;;
31262;SDS011;17892;52.080;9.006;2024-03-25T04:24:26;9.02;;;2.15;;
31262;SDS011;17892;52.080;9.006;2024-03-25T04:26:52;6.22;;;1.83;;
31262;SDS011;17892;52.080;9.006;2024-03-25T04:29:17;7.43;;;1.60;;
31262;SDS011;17892;52.080;9.006;2024-03-25T04:31:43;5.90;;;1.52;;
31262;SDS011;17892;52.080;9.006;2024-03-25T04:34:08;5.22;;;1.85;;
31262;SDS011;17892;52.080;9.006;2024-03-25T04:36:34;7.80;;;2.00;;
31262;SDS011;17892;52.080;9.006;2024-03-25T04:39:00;5.80;;;1.60;;
31262;SDS011;17892;52.080;9.006;2024-03-25T04:41:25;6.57;;;2.53;;
31262;SDS011;17892;52.080;9.006;2024-03-25T04:43:51;7.47;;;1.90;;
31262;SDS011;17892;52.080;9.006;2024-03-25T04:46:17;9.23;;;1.95;;
31262;SDS011;17892;52.080;9.006;2024-03-25T04:48:43;5.82;;;2.00;;
31262;SDS011;17892;52.080;9.006;2024-03-25T04:51:08;7.00;;;2.33;;
31262;SDS011;17892;52.080;9.006;2024-03-25T04:53:34;6.43;;;1.77;;
31262;SDS011;17892;52.080;9.006;2024-03-25T04:56:00;7.32;;;1.98;;
31262;SDS011;17892;52.080;9.006;2024-03-25T04:58:26;11.60;;;2.75;;
31262;SDS011;17892;52.080;9.006;2024-03-25T05:00:52;12.88;;;2.17;;
31262;SDS011;17892;52.080;9.006;2024-03-25T05:03:17;6.15;;;2.10;;
31262;SDS011;17892;52.080;9.006;2024-03-25T05:05:43;8.07;;;2.20;;
31262;SDS011;17892;52.080;9.006;2024-03-25T05:08:09;6.53;;;1.73;;
31262;SDS011;17892;52.080;9.006;2024-03-25T05:10:35;11.93;;;2.28;;
31262;SDS011;17892;52.080;9.006;2024-03-25T05:13:00;12.52;;;2.53;;
31262;SDS011;17892;52.080;9.006;2024-03-25T05:15:26;8.93;;;1.83;;
31262;SDS011;17892;52.080;9.006;2024-03-25T05:17:51;13.02;;;2.67;;
31262;SDS011;17892;52.080;9.006;2024-03-25T05:20:17;6.32;;;1.70;;
31262;SDS011;17892;52.080;9.006;2024-03-25T05:22:43;7.10;;;2.08;;
31262;SDS011;17892;52.080;9.006;2024-03-25T05:25:09;7.38;;;1.50;;
31262;SDS011;17892;52.080;9.006;2024-03-25T05:27:35;5.88;;;1.30;;
31262;SDS011;17892;52.080;9.006;2024-03-25T05:30:00;5.65;;;1.63;;
31262;SDS011;17892;52.080;9.006;2024-03-25T05:32:26;8.45;;;1.90;;
31262;SDS011;17892;52.080;9.006;2024-03-25T05:34:52;6.82;;;1.75;;
31262;SDS011;17892;52.080;9.006;2024-03-25T05:37:17;7.32;;;1.58;;
31262;SDS011;17892;52.080;9.006;2024-03-25T05:39:43;6.22;;;1.63;;
31262;SDS011;17892;52.080;9.006;2024-03-25T05:42:09;7.53;;;1.50;;
31262;SDS011;17892;52.080;9.006;2024-03-25T05:44:34;8.32;;;1.98;;
31262;SDS011;17892;52.080;9.006;2024-03-25T05:47:00;7.00;;;1.40;;
31262;SDS011;17892;52.080;9.006;2024-03-25T05:49:27;4.93;;;1.60;;
31262;SDS011;17892;52.080;9.006;2024-03-25T05:51:53;8.32;;;1.75;;
31262;SDS011;17892;52.080;9.006;2024-03-25T05:54:18;5.65;;;1.30;;
31262;SDS011;17892;52.080;9.006;2024-03-25T05:56:44;9.38;;;2.25;;
31262;SDS011;17892;52.080;9.006;2024-03-25T05:59:10;6.50;;;1.80;;
31262;SDS011;17892;52.080;9.006;2024-03-25T06:01:35;6.95;;;1.88;;
31262;SDS011;17892;52.080;9.006;2024-03-25T06:04:02;6.28;;;1.58;;
31262;SDS011;17892;52.080;9.006;2024-03-25T06:06:29;6.85;;;2.25;;
31262;SDS011;17892;52.080;9.006;2024-03-25T06:08:54;7.90;;;1.90;;
31262;SDS011;17892;52.080;9.006;2024-03-25T06:11:20;6.72;;;2.13;;
31262;SDS011;17892;52.080;9.006;2024-03-25T06:13:46;8.75;;;2.13;;
31262;SDS011;17892;52.080;9.006;2024-03-25T06:16:12;8.35;;;1.52;;
31262;SDS011;17892;52.080;9.006;2024-03-25T06:18:39;5.30;;;1.50;;
31262;SDS011;17892;52.080;9.006;2024-03-25T06:21:05;6.47;;;1.52;;
31262;SDS011;17892;52.080;9.006;2024-03-25T06:23:31;5.97;;;1.75;;
31262;SDS011;17892;52.080;9.006;2024-03-25T06:25:57;7.82;;;1.80;;
31262;SDS011;17892;52.080;9.006;2024-03-25T06:28:23;6.80;;;1.52;;
31262;SDS011;17892;52.080;9.006;2024-03-25T06:30:49;5.97;;;1.40;;
31262;SDS011;17892;52.080;9.006;2024-03-25T06:33:35;7.80;;;2.20;;
31262;SDS011;17892;52.080;9.006;2024-03-25T06:36:19;4.80;;;1.85;;
31262;SDS011;17892;52.080;9.006;2024-03-25T06:38:46;10.18;;;1.67;;
31262;SDS011;17892;52.080;9.006;2024-03-25T06:41:12;6.75;;;2.00;;
31262;SDS011;17892;52.080;9.006;2024-03-25T06:43:38;5.28;;;1.60;;
31262;SDS011;17892;52.080;9.006;2024-03-25T06:46:07;6.22;;;1.90;;
31262;SDS011;17892;52.080;9.006;2024-03-25T06:48:33;6.47;;;1.80;;
31262;SDS011;17892;52.080;9.006;2024-03-25T06:51:01;7.20;;;1.58;;
31262;SDS011;17892;52.080;9.006;2024-03-25T06:53:28;6.32;;;1.70;;
31262;SDS011;17892;52.080;9.006;2024-03-25T06:55:57;6.45;;;1.80;;
31262;SDS011;17892;52.080;9.006;2024-03-25T06:58:24;5.60;;;1.50;;
31262;SDS011;17892;52.080;9.006;2024-03-25T07:00:52;6.85;;;1.85;;
31262;SDS011;17892;52.080;9.006;2024-03-25T07:03:20;4.93;;;1.40;;
31262;SDS011;17892;52.080;9.006;2024-03-25T07:05:48;4.93;;;1.52;;
31262;SDS011;17892;52.080;9.006;2024-03-25T07:08:19;5.68;;;1.50;;
31262;SDS011;17892;52.080;9.006;2024-03-25T07:10:45;6.68;;;2.08;;
31262;SDS011;17892;52.080;9.006;2024-03-25T07:13:11;6.45;;;1.50;;
31262;SDS011;17892;52.080;9.006;2024-03-25T07:15:38;5.13;;;1.60;;
31262;SDS011;17892;52.080;9.006;2024-03-25T07:18:04;5.03;;;2.10;;
31262;SDS011;17892;52.080;9.006;2024-03-25T07:20:30;8.27;;;1.67;;
31262;SDS011;17892;52.080;9.006;2024-03-25T07:22:56;6.50;;;2.17;;
31262;SDS011;17892;52.080;9.006;2024-03-25T07:25:23;9.45;;;1.80;;
31262;SDS011;17892;52.080;9.006;2024-03-25T07:27:50;6.47;;;1.38;;
31262;SDS011;17892;52.080;9.006;2024-03-25T07:30:17;6.47;;;1.80;;
31262;SDS011;17892;52.080;9.006;2024-03-25T07:32:43;6.82;;;1.95;;
31262;SDS011;17892;52.080;9.006;2024-03-25T07:35:12;9.20;;;2.53;;
31262;SDS011;17892;52.080;9.006;2024-03-25T07:37:41;8.20;;;1.58;;
31262;SDS011;17892;52.080;9.006;2024-03-25T07:40:09;6.35;;;1.98;;
31262;SDS011;17892;52.080;9.006;2024-03-25T07:42:38;10.07;;;2.20;;
31262;SDS011;17892;52.080;9.006;2024-03-25T07:45:04;4.53;;;1.63;;
31262;SDS011;17892;52.080;9.006;2024-03-25T07:47:32;5.22;;;2.08;;
31262;SDS011;17892;52.080;9.006;2024-03-25T07:49:58;11.30;;;2.20;;
31262;SDS011;17892;52.080;9.006;2024-03-25T07:52:24;6.07;;;1.83;;
31262;SDS011;17892;52.080;9.006;2024-03-25T07:54:50;5.65;;;2.00;;
31262;SDS011;17892;52.080;9.006;2024-03-25T07:57:17;5.10;;;1.50;;
31262;SDS011;17892;52.080;9.006;2024-03-25T07:59:44;9.32;;;2.03;;
31262;SDS011;17892;52.080;9.006;2024-03-25T08:02:10;7.40;;;2.10;;
31262;SDS011;17892;52.080;9.006;2024-03-25T08:04:36;8.38;;;2.05;;
31262;SDS011;17892;52.080;9.006;2024-03-25T08:07:02;7.53;;;2.05;;
31262;SDS011;17892;52.080;9.006;2024-03-25T08:09:27;10.38;;;2.10;;
31262;SDS011;17892;52.080;9.006;2024-03-25T08:11:54;8.65;;;2.53;;
31262;SDS011;17892;52.080;9.006;2024-03-25T08:14:19;7.25;;;1.75;;
31262;SDS011;17892;52.080;9.006;2024-03-25T08:16:45;4.80;;;1.58;;
31262;SDS011;17892;52.080;9.006;2024-03-25T08:19:11;7.78;;;1.70;;
31262;SDS011;17892;52.080;9.006;2024-03-25T08:21:37;4.97;;;2.10;;
31262;SDS011;17892;52.080;9.006;2024-03-25T08:24:02;6.10;;;1.63;;
31262;SDS011;17892;52.080;9.006;2024-03-25T08:26:28;9.98;;;2.08;;
31262;SDS011;17892;52.080;9.006;2024-03-25T08:28:54;4.78;;;1.70;;
31262;SDS011;17892;52.080;9.006;2024-03-25T08:31:20;7.00;;;2.13;;
31262;SDS011;17892;52.080;9.006;2024-03-25T08:33:46;4.03;;;1.75;;
31262;SDS011;17892;52.080;9.006;2024-03-25T08:36:11;6.22;;;1.85;;
31262;SDS011;17892;52.080;9.006;2024-03-25T08:38:37;9.35;;;2.55;;
31262;SDS011;17892;52.080;9.006;2024-03-25T08:41:03;4.20;;;1.40;;
31262;SDS011;17892;52.080;9.006;2024-03-25T08:43:29;6.47;;;1.90;;
31262;SDS011;17892;52.080;9.006;2024-03-25T08:45:55;4.28;;;1.50;;
31262;SDS011;17892;52.080;9.006;2024-03-25T08:48:21;5.65;;;2.08;;
31262;SDS011;17892;52.080;9.006;2024-03-25T08:50:46;5.22;;;2.05;;
31262;SDS011;17892;52.080;9.006;2024-03-25T08:53:12;8.07;;;2.00;;
31262;SDS011;17892;52.080;9.006;2024-03-25T08:55:38;6.55;;;2.08;;
31262;SDS011;17892;52.080;9.006;2024-03-25T08:58:03;6.18;;;1.90;;
31262;SDS011;17892;52.080;9.006;2024-03-25T09:00:30;11.55;;;1.80;;
31262;SDS011;17892;52.080;9.006;2024-03-25T09:02:55;5.05;;;1.75;;
31262;SDS011;17892;52.080;9.006;2024-03-25T09:05:21;4.82;;;1.20;;
31262;SDS011;17892;52.080;9.006;2024-03-25T09:07:50;8.02;;;1.60;;
31262;SDS011;17892;52.080;9.006;2024-03-25T09:10:20;5.25;;;1.35;;
31262;SDS011;17892;52.080;9.006;2024-03-25T09:13:05;6.55;;;1.58;;
31262;SDS011;17892;52.080;9.006;2024-03-25T09:15:30;4.57;;;1.40;;
31262;SDS011;17892;52.080;9.006;2024-03-25T09:17:56;5.82;;;1.52;;
31262;SDS011;17892;52.080;9.006;2024-03-25T09:20:22;6.07;;;1.90;;
31262;SDS011;17892;52.080;9.006;2024-03-25T09:22:48;5.15;;;1.65;;
31262;SDS011;17892;52.080;9.006;2024-03-25T09:25:14;4.78;;;1.90;;
31262;SDS011;17892;52.080;9.006;2024-03-25T09:27:41;3.67;;;1.40;;
31262;SDS011;17892;52.080;9.006;2024-03-25T09:30:14;5.20;;;1.83;;
31262;SDS011;17892;52.080;9.006;2024-03-25T09:32:40;5.22;;;1.50;;
31262;SDS011;17892;52.080;9.006;2024-03-25T09:35:07;5.10;;;1.50;;
31262;SDS011;17892;52.080;9.006;2024-03-25T09:37:34;5.32;;;1.35;;
31262;SDS011;17892;52.080;9.006;2024-03-25T09:40:00;4.88;;;1.52;;
31262;SDS011;17892;52.080;9.006;2024-03-25T09:42:26;9.85;;;2.05;;
31262;SDS011;17892;52.080;9.006;2024-03-25T09:45:04;4.50;;;1.50;;
31262;SDS011;17892;52.080;9.006;2024-03-25T09:47:33;6.53;;;1.73;;
31262;SDS011;17892;52.080;9.006;2024-03-25T09:49:59;5.50;;;1.48;;
31262;SDS011;17892;52.080;9.006;2024-03-25T09:52:28;4.35;;;1.10;;
31262;SDS011;17892;52.080;9.006;2024-03-25T09:54:53;5.57;;;1.30;;
31262;SDS011;17892;52.080;9.006;2024-03-25T09:57:19;6.07;;;1.40;;
31262;SDS011;17892;52.080;9.006;2024-03-25T09:59:45;3.55;;;0.90;;
31262;SDS011;17892;52.080;9.006;2024-03-25T10:02:11;3.20;;;1.10;;
31262;SDS011;17892;52.080;9.006;2024-03-25T10:04:40;4.03;;;0.98;;
31262;SDS011;17892;52.080;9.006;2024-03-25T10:07:12;3.58;;;1.02;;
31262;SDS011;17892;52.080;9.006;2024-03-25T10:09:48;3.25;;;1.00;;
31262;SDS011;17892;52.080;9.006;2024-03-25T10:12:16;2.72;;;0.75;;
31262;SDS011;17892;52.080;9.006;2024-03-25T10:14:42;4.82;;;0.90;;
31262;SDS011;17892;52.080;9.006;2024-03-25T10:17:09;3.80;;;0.90;;
31262;SDS011;17892;52.080;9.006;2024-03-25T10:19:36;3.03;;;0.80;;
31262;SDS011;17892;52.080;9.006;2024-03-25T10:22:04;4.10;;;1.20;;
31262;SDS011;17892;52.080;9.006;2024-03-25T10:24:44;3.88;;;0.88;;
31262;SDS011;17892;52.080;9.006;2024-03-25T10:27:20;2.95;;;1.27;;
31262;SDS011;17892;52.080;9.006;2024-03-25T10:29:47;3.78;;;1.00;;
31262;SDS011;17892;52.080;9.006;2024-03-25T10:32:18;5.25;;;1.13;;
31262;SDS011;17892;52.080;9.006;2024-03-25T10:34:44;3.35;;;0.90;;
31262;SDS011;17892;52.080;9.006;2024-03-25T10:37:10;2.30;;;0.65;;
31262;SDS011;17892;52.080;9.006;2024-03-25T10:39:59;3.03;;;0.90;;
31262;SDS011;17892;52.080;9.006;2024-03-25T10:42:25;5.47;;;1.25;;
31262;SDS011;17892;52.080;9.006;2024-03-25T10:44:51;3.97;;;1.08;;
31262;SDS011;17892;52.080;9.006;2024-03-25T10:47:19;3.85;;;0.80;;
31262;SDS011;17892;52.080;9.006;2024-03-25T10:49:50;2.97;;;0.88;;
31262;SDS011;17892;52.080;9.006;2024-03-25T10:52:22;3.47;;;0.95;;
31262;SDS011;17892;52.080;9.006;2024-03-25T10:54:50;2.78;;;0.90;;
31262;SDS011;17892;52.080;9.006;2024-03-25T10:57:16;3.90;;;0.88;;
31262;SDS011;17892;52.080;9.006;2024-03-25T10:59:43;4.60;;;1.13;;
31262;SDS011;17892;52.080;9.006;2024-03-25T11:02:11;2.38;;;0.70;;
31262;SDS011;17892;52.080;9.006;2024-03-25T11:04:37;1.98;;;0.65;;
31262;SDS011;17892;52.080;9.006;2024-03-25T11:12:10;3.47;;;0.90;;
31262;SDS011;17892;52.080;9.006;2024-03-25T11:14:38;1.98;;;0.60;;
31262;SDS011;17892;52.080;9.006;2024-03-25T11:17:14;1.85;;;0.52;;
31262;SDS011;17892;52.080;9.006;2024-03-25T11:19:41;2.50;;;1.00;;
31262;SDS011;17892;52.080;9.006;2024-03-25T11:22:07;4.10;;;1.38;;
31262;SDS011;17892;52.080;9.006;2024-03-25T11:24:37;2.58;;;0.70;;
31262;SDS011;17892;52.080;9.006;2024-03-25T11:27:08;4.03;;;1.00;;
31262;SDS011;17892;52.080;9.006;2024-03-25T11:29:34;5.88;;;0.95;;
31262;SDS011;17892;52.080;9.006;2024-03-25T11:32:03;3.65;;;1.02;;
31262;SDS011;17892;52.080;9.006;2024-03-25T11:34:30;3.78;;;1.00;;
31262;SDS011;17892;52.080;9.006;2024-03-25T11:36:57;3.33;;;1.10;;
31262;SDS011;17892;52.080;9.006;2024-03-25T11:39:23;3.38;;;0.88;;
31262;SDS011;17892;52.080;9.006;2024-03-25T11:41:51;3.10;;;0.95;;
31262;SDS011;17892;52.080;9.006;2024-03-25T11:44:17;5.18;;;1.42;;
31262;SDS011;17892;52.080;9.006;2024-03-25T11:46:43;4.38;;;0.98;;
31262;SDS011;17892;52.080;9.006;2024-03-25T11:49:12;2.70;;;0.80;;
31262;SDS011;17892;52.080;9.006;2024-03-25T11:51:40;3.40;;;0.90;;
31262;SDS011;17892;52.080;9.006;2024-03-25T11:54:10;2.92;;;0.70;;
31262;SDS011;17892;52.080;9.006;2024-03-25T11:56:36;3.60;;;0.90;;
31262;SDS011;17892;52.080;9.006;2024-03-25T11:59:03;3.60;;;1.25;;
31262;SDS011;17892;52.080;9.006;2024-03-25T12:01:29;3.33;;;0.82;;
31262;SDS011;17892;52.080;9.006;2024-03-25T12:03:56;2.13;;;0.80;;
31262;SDS011;17892;52.080;9.006;2024-03-25T12:06:22;3.58;;;1.00;;
31262;SDS011;17892;52.080;9.006;2024-03-25T12:08:47;3.03;;;0.82;;
31262;SDS011;17892;52.080;9.006;2024-03-25T12:11:32;2.70;;;0.80;;
31262;SDS011;17892;52.080;9.006;2024-03-25T12:13:58;2.65;;;1.17;;
31262;SDS011;17892;52.080;9.006;2024-03-25T12:16:25;3.35;;;0.90;;
31262;SDS011;17892;52.080;9.006;2024-03-25T12:18:51;2.15;;;0.65;;
31262;SDS011;17892;52.080;9.006;2024-03-25T12:21:20;2.28;;;0.80;;
31262;SDS011;17892;52.080;9.006;2024-03-25T12:23:47;2.20;;;0.75;;
31262;SDS011;17892;52.080;9.006;2024-03-25T12:26:12;5.25;;;1.10;;
31262;SDS011;17892;52.080;9.006;2024-03-25T12:28:41;2.53;;;0.73;;
31262;SDS011;17892;52.080;9.006;2024-03-25T12:31:07;2.08;;;0.60;;
31262;SDS011;17892;52.080;9.006;2024-03-25T12:33:43;2.75;;;0.70;;
31262;SDS011;17892;52.080;9.006;2024-03-25T12:36:12;3.80;;;1.10;;
31262;SDS011;17892;52.080;9.006;2024-03-25T12:38:38;2.70;;;0.80;;
31262;SDS011;17892;52.080;9.006;2024-03-25T12:41:08;4.05;;;1.10;;
31262;SDS011;17892;52.080;9.006;2024-03-25T12:43:36;4.95;;;1.10;;
31262;SDS011;17892;52.080;9.006;2024-03-25T12:46:08;2.50;;;0.73;;
31262;SDS011;17892;52.080;9.006;2024-03-25T12:48:36;3.83;;;0.98;;
31262;SDS011;17892;52.080;9.006;2024-03-25T12:51:02;2.85;;;0.77;;
31262;SDS011;17892;52.080;9.006;2024-03-25T12:53:28;2.28;;;0.82;;
31262;SDS011;17892;52.080;9.006;2024-03-25T12:55:54;4.88;;;1.30;;
31262;SDS011;17892;52.080;9.006;2024-03-25T12:58:20;2.17;;;0.77;;
31262;SDS011;17892;52.080;9.006;2024-03-25T13:00:45;3.25;;;1.15;;
31262;SDS011;17892;52.080;9.006;2024-03-25T13:03:11;3.00;;;0.90;;
31262;SDS011;17892;52.080;9.006;2024-03-25T13:05:38;2.95;;;1.08;;
31262;SDS011;17892;52.080;9.006;2024-03-25T13:08:04;2.50;;;0.95;;
31262;SDS011;17892;52.080;9.006;2024-03-25T13:10:30;3.20;;;0.90;;
31262;SDS011;17892;52.080;9.006;2024-03-25T13:12:56;2.85;;;0.90;;
31262;SDS011;17892;52.080;9.006;2024-03-25T13:15:22;6.03;;;1.20;;
31262;SDS011;17892;52.080;9.006;2024-03-25T13:17:48;5.90;;;1.40;;
31262;SDS011;17892;52.080;9.006;2024-03-25T13:20:14;3.08;;;1.48;;
31262;SDS011;17892;52.080;9.006;2024-03-25T13:22:40;2.90;;;1.10;;
31262;SDS011;17892;52.080;9.006;2024-03-25T13:25:06;4.30;;;0.95;;
31262;SDS011;17892;52.080;9.006;2024-03-25T13:27:32;3.05;;;1.00;;
31262;SDS011;17892;52.080;9.006;2024-03-25T13:29:58;5.22;;;1.30;;
31262;SDS011;17892;52.080;9.006;2024-03-25T13:32:24;4.68;;;1.52;;
31262;SDS011;17892;52.080;9.006;2024-03-25T13:34:50;3.40;;;1.38;;
31262;SDS011;17892;52.080;9.006;2024-03-25T13:37:19;3.88;;;1.20;;
31262;SDS011;17892;52.080;9.006;2024-03-25T13:39:44;3.90;;;1.40;;
31262;SDS011;17892;52.080;9.006;2024-03-25T13:42:11;3.17;;;0.85;;
31262;SDS011;17892;52.080;9.006;2024-03-25T13:44:36;3.78;;;1.13;;
31262;SDS011;17892;52.080;9.006;2024-03-25T13:47:02;4.15;;;1.33;;
31262;SDS011;17892;52.080;9.006;2024-03-25T13:49:28;4.50;;;1.25;;
31262;SDS011;17892;52.080;9.006;2024-03-25T13:51:57;4.60;;;1.27;;
31262;SDS011;17892;52.080;9.006;2024-03-25T13:54:23;3.03;;;1.05;;
31262;SDS011;17892;52.080;9.006;2024-03-25T13:56:52;5.22;;;1.58;;
31262;SDS011;17892;52.080;9.006;2024-03-25T13:59:18;4.90;;;1.50;;
31262;SDS011;17892;52.080;9.006;2024-03-25T14:01:44;5.38;;;1.40;;
31262;SDS011;17892;52.080;9.006;2024-03-25T14:04:10;3.78;;;1.40;;
31262;SDS011;17892;52.080;9.006;2024-03-25T14:06:36;2.95;;;1.00;;
31262;SDS011;17892;52.080;9.006;2024-03-25T14:09:02;3.17;;;1.00;;
31262;SDS011;17892;52.080;9.006;2024-03-25T14:11:35;3.15;;;1.38;;
31262;SDS011;17892;52.080;9.006;2024-03-25T14:14:01;3.40;;;1.17;;
31262;SDS011;17892;52.080;9.006;2024-03-25T14:16:28;4.00;;;1.10;;
31262;SDS011;17892;52.080;9.006;2024-03-25T14:18:53;4.95;;;1.20;;
31262;SDS011;17892;52.080;9.006;2024-03-25T14:21:19;5.22;;;1.00;;
31262;SDS011;17892;52.080;9.006;2024-03-25T14:23:45;4.15;;;1.10;;
31262;SDS011;17892;52.080;9.006;2024-03-25T14:26:11;2.92;;;1.00;;
31262;SDS011;17892;52.080;9.006;2024-03-25T14:28:40;5.75;;;1.65;;
31262;SDS011;17892;52.080;9.006;2024-03-25T14:31:06;3.90;;;1.13;;
31262;SDS011;17892;52.080;9.006;2024-03-25T14:33:32;4.80;;;1.50;;
31262;SDS011;17892;52.080;9.006;2024-03-25T14:35:57;4.63;;;1.15;;
31262;SDS011;17892;52.080;9.006;2024-03-25T14:38:23;6.60;;;1.25;;
31262;SDS011;17892;52.080;9.006;2024-03-25T14:40:49;3.30;;;1.35;;
31262;SDS011;17892;52.080;9.006;2024-03-25T14:43:15;5.35;;;1.17;;
31262;SDS011;17892;52.080;9.006;2024-03-25T14:45:44;3.30;;;1.25;;
31262;SDS011;17892;52.080;9.006;2024-03-25T14:48:12;3.83;;;0.90;;
31262;SDS011;17892;52.080;9.006;2024-03-25T14:50:38;2.95;;;1.15;;